Towanda, IL (61776)

7:34 AM CDT on August 25, 2016 (GMT -0500)
Eagle's Landing | | Change Station

Elev 820 ft 40.53 °N, 88.93 °W | Updated 8 seconds ago

Clear
Clear
70.7 °F
Feels Like 70.7 °F
N
1.6
Wind Variable Wind from NE
Gusts 7.6 mph

Today
High -- | Low -- °F
--% Chance of Precip.
Yesterday
High -- | Low -- °F
Precip. -- in
Pressure 30.08 in
Visibility 10.0 miles
Clouds Clear
Dew Point 69 °F
Humidity 94%
Rainfall 0.04 in
Snow Depth Not available.
6:16 AM 7:37 PM
Last Quarter, 46% visible
METAR KBMI 251156Z 21006KT 10SM CLR 19/19 A3005 RMK AO2 SLP186 6//// 7//// T01940189 10244 20194 53010
Pressure 30.08 in
Visibility 10.0 miles
Clouds Clear
Dew Point 69 °F
Humidity 94%
Rainfall 0.04 in
Snow Depth Not available.
6:16 AM 7:37 PM
Last Quarter, 46% visible
METAR KBMI 251156Z 21006KT 10SM CLR 19/19 A3005 RMK AO2 SLP186 6//// 7//// T01940189 10244 20194 53010

10-Day Weather Forecast

Almanac

Astronomy

Aug. 25, 2016 Rise Set
Actual Time
Civil Twilight
Nautical Twilight
Astronomical Twilight
Moon
Length of Visible Light
Length of Day
Tomorrow will be .
, % of the Moon is Illuminated

Today's Extremes

State Highs State Lows

Community

WunderPhotos

Upload Photos

1,934,833 photos uploaded!

WunderBlog® & News

Nearby

Air Quality

  Air Quality AQ Index Pollutant
Not available.

Snow Depth

Station Depth Elevation

Earthquake Activity

City Distance Mag. Time & Date
Minimum magnitude displayed is 2.5.

Coastal Water Temperatures

Place Temperature

Stations

Nearby Weather Stations

Station Location Temp. Windchill Dew Point Humidity Wind Precip. Elev Updated Type
                   

Watches & Warnings

There are currently no watches in effect.